sensor_id;sensor_type;location;lat;lon;timestamp;P1;durP1;ratioP1;P2;durP2;ratioP2
7515;SDS011;3799;47.184;8.538;2023-04-16T00:01:47;3.00;;;1.05;;
7515;SDS011;3799;47.184;8.538;2023-04-16T00:04:25;1.80;;;0.70;;
7515;SDS011;3799;47.184;8.538;2023-04-16T00:06:59;2.25;;;0.85;;
7515;SDS011;3799;47.184;8.538;2023-04-16T00:09:27;2.80;;;0.63;;
7515;SDS011;3799;47.184;8.538;2023-04-16T00:11:57;2.70;;;0.80;;
7515;SDS011;3799;47.184;8.538;2023-04-16T00:14:31;2.10;;;0.82;;
7515;SDS011;3799;47.184;8.538;2023-04-16T00:17:03;2.95;;;1.02;;
7515;SDS011;3799;47.184;8.538;2023-04-16T00:19:31;2.95;;;0.93;;
7515;SDS011;3799;47.184;8.538;2023-04-16T00:22:03;2.05;;;0.80;;
7515;SDS011;3799;47.184;8.538;2023-04-16T00:24:33;2.65;;;0.73;;
7515;SDS011;3799;47.184;8.538;2023-04-16T00:27:01;1.75;;;0.55;;
7515;SDS011;3799;47.184;8.538;2023-04-16T00:29:45;2.30;;;0.63;;
7515;SDS011;3799;47.184;8.538;2023-04-16T00:32:20;2.92;;;0.95;;
7515;SDS011;3799;47.184;8.538;2023-04-16T00:34:55;3.22;;;1.05;;
7515;SDS011;3799;47.184;8.538;2023-04-16T00:37:22;3.10;;;1.00;;
7515;SDS011;3799;47.184;8.538;2023-04-16T00:39:52;4.20;;;0.80;;
7515;SDS011;3799;47.184;8.538;2023-04-16T00:42:22;1.80;;;0.80;;
7515;SDS011;3799;47.184;8.538;2023-04-16T00:44:49;4.93;;;0.82;;
7515;SDS011;3799;47.184;8.538;2023-04-16T00:47:16;2.20;;;0.73;;
7515;SDS011;3799;47.184;8.538;2023-04-16T00:49:46;1.75;;;0.55;;
7515;SDS011;3799;47.184;8.538;2023-04-16T00:52:13;2.80;;;1.05;;
7515;SDS011;3799;47.184;8.538;2023-04-16T00:54:41;2.70;;;0.98;;
7515;SDS011;3799;47.184;8.538;2023-04-16T00:57:15;1.70;;;0.55;;
7515;SDS011;3799;47.184;8.538;2023-04-16T00:59:43;2.53;;;1.08;;
7515;SDS011;3799;47.184;8.538;2023-04-16T01:02:11;5.35;;;1.13;;
7515;SDS011;3799;47.184;8.538;2023-04-16T01:04:38;3.78;;;0.95;;
7515;SDS011;3799;47.184;8.538;2023-04-16T01:07:06;3.40;;;1.20;;
7515;SDS011;3799;47.184;8.538;2023-04-16T01:09:34;3.78;;;1.10;;
7515;SDS011;3799;47.184;8.538;2023-04-16T01:12:03;2.42;;;0.80;;
7515;SDS011;3799;47.184;8.538;2023-04-16T01:14:31;2.78;;;0.93;;
7515;SDS011;3799;47.184;8.538;2023-04-16T01:17:02;3.97;;;0.90;;
7515;SDS011;3799;47.184;8.538;2023-04-16T01:19:30;3.05;;;0.88;;
7515;SDS011;3799;47.184;8.538;2023-04-16T01:21:57;2.63;;;0.85;;
7515;SDS011;3799;47.184;8.538;2023-04-16T01:24:28;4.10;;;0.88;;
7515;SDS011;3799;47.184;8.538;2023-04-16T01:26:58;2.00;;;0.80;;
7515;SDS011;3799;47.184;8.538;2023-04-16T01:29:28;3.78;;;0.77;;
7515;SDS011;3799;47.184;8.538;2023-04-16T01:31:55;4.10;;;1.00;;
7515;SDS011;3799;47.184;8.538;2023-04-16T01:34:22;2.50;;;1.10;;
7515;SDS011;3799;47.184;8.538;2023-04-16T01:36:50;1.70;;;0.80;;
7515;SDS011;3799;47.184;8.538;2023-04-16T01:39:17;2.35;;;1.05;;
7515;SDS011;3799;47.184;8.538;2023-04-16T01:41:47;3.60;;;1.00;;
7515;SDS011;3799;47.184;8.538;2023-04-16T01:44:15;2.42;;;1.08;;
7515;SDS011;3799;47.184;8.538;2023-04-16T01:46:43;3.83;;;0.80;;
7515;SDS011;3799;47.184;8.538;2023-04-16T01:49:11;3.33;;;1.00;;
7515;SDS011;3799;47.184;8.538;2023-04-16T01:51:39;2.13;;;0.75;;
7515;SDS011;3799;47.184;8.538;2023-04-16T01:54:06;4.15;;;1.00;;
7515;SDS011;3799;47.184;8.538;2023-04-16T01:56:35;4.72;;;1.52;;
7515;SDS011;3799;47.184;8.538;2023-04-16T01:59:02;3.42;;;1.20;;
7515;SDS011;3799;47.184;8.538;2023-04-16T02:01:33;2.30;;;0.98;;
7515;SDS011;3799;47.184;8.538;2023-04-16T02:04:01;3.03;;;0.88;;
7515;SDS011;3799;47.184;8.538;2023-04-16T02:06:29;3.42;;;1.15;;
7515;SDS011;3799;47.184;8.538;2023-04-16T02:08:57;1.92;;;0.90;;
7515;SDS011;3799;47.184;8.538;2023-04-16T02:11:24;2.33;;;1.17;;
7515;SDS011;3799;47.184;8.538;2023-04-16T02:13:55;2.75;;;1.20;;
7515;SDS011;3799;47.184;8.538;2023-04-16T02:16:22;4.03;;;1.58;;
7515;SDS011;3799;47.184;8.538;2023-04-16T02:18:50;2.08;;;0.90;;
7515;SDS011;3799;47.184;8.538;2023-04-16T02:21:18;3.22;;;0.77;;
7515;SDS011;3799;47.184;8.538;2023-04-16T02:23:45;2.40;;;0.82;;
7515;SDS011;3799;47.184;8.538;2023-04-16T02:26:17;3.53;;;1.52;;
7515;SDS011;3799;47.184;8.538;2023-04-16T02:28:44;3.70;;;1.50;;
7515;SDS011;3799;47.184;8.538;2023-04-16T02:31:12;4.03;;;1.40;;
7515;SDS011;3799;47.184;8.538;2023-04-16T02:33:40;3.55;;;1.20;;
7515;SDS011;3799;47.184;8.538;2023-04-16T02:36:07;4.25;;;1.33;;
7515;SDS011;3799;47.184;8.538;2023-04-16T02:38:36;2.60;;;1.02;;
7515;SDS011;3799;47.184;8.538;2023-04-16T02:41:04;2.60;;;0.68;;
7515;SDS011;3799;47.184;8.538;2023-04-16T02:43:31;3.72;;;1.30;;
7515;SDS011;3799;47.184;8.538;2023-04-16T02:46:12;2.78;;;1.15;;
7515;SDS011;3799;47.184;8.538;2023-04-16T02:48:39;3.80;;;1.55;;
7515;SDS011;3799;47.184;8.538;2023-04-16T02:51:07;2.40;;;1.20;;
7515;SDS011;3799;47.184;8.538;2023-04-16T02:53:35;4.20;;;1.10;;
7515;SDS011;3799;47.184;8.538;2023-04-16T02:56:03;2.53;;;1.27;;
7515;SDS011;3799;47.184;8.538;2023-04-16T02:58:30;5.28;;;1.35;;
7515;SDS011;3799;47.184;8.538;2023-04-16T03:00:58;3.13;;;1.42;;
7515;SDS011;3799;47.184;8.538;2023-04-16T03:03:26;4.78;;;1.45;;
7515;SDS011;3799;47.184;8.538;2023-04-16T03:05:53;3.35;;;1.30;;
7515;SDS011;3799;47.184;8.538;2023-04-16T03:08:21;3.80;;;0.95;;
7515;SDS011;3799;47.184;8.538;2023-04-16T03:10:50;3.33;;;1.42;;
7515;SDS011;3799;47.184;8.538;2023-04-16T03:13:18;3.20;;;1.42;;
7515;SDS011;3799;47.184;8.538;2023-04-16T03:15:47;4.57;;;1.38;;
7515;SDS011;3799;47.184;8.538;2023-04-16T03:18:15;2.97;;;1.35;;
7515;SDS011;3799;47.184;8.538;2023-04-16T03:20:43;3.85;;;1.52;;
7515;SDS011;3799;47.184;8.538;2023-04-16T03:23:10;4.57;;;1.30;;
7515;SDS011;3799;47.184;8.538;2023-04-16T03:25:38;2.55;;;1.20;;
7515;SDS011;3799;47.184;8.538;2023-04-16T03:28:06;3.28;;;1.42;;
7515;SDS011;3799;47.184;8.538;2023-04-16T03:30:33;2.47;;;1.23;;
7515;SDS011;3799;47.184;8.538;2023-04-16T03:33:01;4.32;;;1.58;;
7515;SDS011;3799;47.184;8.538;2023-04-16T03:35:28;4.25;;;1.35;;
7515;SDS011;3799;47.184;8.538;2023-04-16T03:40:26;3.85;;;1.45;;
7515;SDS011;3799;47.184;8.538;2023-04-16T03:42:54;2.88;;;1.30;;
7515;SDS011;3799;47.184;8.538;2023-04-16T03:45:21;4.20;;;1.65;;
7515;SDS011;3799;47.184;8.538;2023-04-16T03:47:52;3.40;;;1.30;;
7515;SDS011;3799;47.184;8.538;2023-04-16T03:50:20;3.55;;;1.30;;
7515;SDS011;3799;47.184;8.538;2023-04-16T03:52:50;5.47;;;1.58;;
7515;SDS011;3799;47.184;8.538;2023-04-16T03:55:17;5.35;;;1.15;;
7515;SDS011;3799;47.184;8.538;2023-04-16T03:57:45;2.28;;;1.15;;
7515;SDS011;3799;47.184;8.538;2023-04-16T04:00:12;2.20;;;1.13;;
7515;SDS011;3799;47.184;8.538;2023-04-16T04:02:39;3.42;;;1.05;;
7515;SDS011;3799;47.184;8.538;2023-04-16T04:05:10;3.22;;;1.40;;
7515;SDS011;3799;47.184;8.538;2023-04-16T04:07:41;2.45;;;1.10;;
7515;SDS011;3799;47.184;8.538;2023-04-16T04:10:08;3.50;;;0.98;;
7515;SDS011;3799;47.184;8.538;2023-04-16T04:12:36;2.78;;;0.90;;
7515;SDS011;3799;47.184;8.538;2023-04-16T04:15:04;5.07;;;1.17;;
7515;SDS011;3799;47.184;8.538;2023-04-16T04:17:32;2.75;;;1.02;;
7515;SDS011;3799;47.184;8.538;2023-04-16T04:19:59;1.88;;;0.80;;
7515;SDS011;3799;47.184;8.538;2023-04-16T04:22:27;3.20;;;0.90;;
7515;SDS011;3799;47.184;8.538;2023-04-16T04:24:55;1.90;;;0.77;;
7515;SDS011;3799;47.184;8.538;2023-04-16T04:27:22;2.72;;;0.82;;
7515;SDS011;3799;47.184;8.538;2023-04-16T04:29:49;1.65;;;0.90;;
7515;SDS011;3799;47.184;8.538;2023-04-16T04:32:20;2.13;;;1.20;;
7515;SDS011;3799;47.184;8.538;2023-04-16T04:37:16;2.28;;;0.80;;
7515;SDS011;3799;47.184;8.538;2023-04-16T04:39:44;2.78;;;0.63;;
7515;SDS011;3799;47.184;8.538;2023-04-16T04:42:11;1.55;;;0.80;;
7515;SDS011;3799;47.184;8.538;2023-04-16T04:44:39;1.95;;;0.80;;
7515;SDS011;3799;47.184;8.538;2023-04-16T04:47:07;3.38;;;0.77;;
7515;SDS011;3799;47.184;8.538;2023-04-16T04:49:35;1.77;;;0.70;;
7515;SDS011;3799;47.184;8.538;2023-04-16T04:52:03;2.53;;;1.02;;
7515;SDS011;3799;47.184;8.538;2023-04-16T04:54:31;1.35;;;0.50;;
7515;SDS011;3799;47.184;8.538;2023-04-16T04:56:59;1.65;;;0.60;;
7515;SDS011;3799;47.184;8.538;2023-04-16T04:59:27;1.67;;;0.55;;
7515;SDS011;3799;47.184;8.538;2023-04-16T05:02:03;2.10;;;0.80;;
7515;SDS011;3799;47.184;8.538;2023-04-16T05:04:30;1.30;;;0.57;;
7515;SDS011;3799;47.184;8.538;2023-04-16T05:06:58;1.45;;;0.40;;
7515;SDS011;3799;47.184;8.538;2023-04-16T05:09:25;1.73;;;0.77;;
7515;SDS011;3799;47.184;8.538;2023-04-16T05:11:53;1.50;;;0.57;;
7515;SDS011;3799;47.184;8.538;2023-04-16T05:14:21;1.33;;;0.70;;
7515;SDS011;3799;47.184;8.538;2023-04-16T05:16:49;1.60;;;0.80;;
7515;SDS011;3799;47.184;8.538;2023-04-16T05:19:17;2.05;;;0.60;;
7515;SDS011;3799;47.184;8.538;2023-04-16T05:21:45;1.92;;;0.85;;
7515;SDS011;3799;47.184;8.538;2023-04-16T05:24:12;1.13;;;0.40;;
7515;SDS011;3799;47.184;8.538;2023-04-16T05:26:40;1.17;;;0.43;;
7515;SDS011;3799;47.184;8.538;2023-04-16T05:29:08;1.10;;;0.40;;
7515;SDS011;3799;47.184;8.538;2023-04-16T05:31:35;3.00;;;0.45;;
7515;SDS011;3799;47.184;8.538;2023-04-16T05:34:05;0.98;;;0.28;;
7515;SDS011;3799;47.184;8.538;2023-04-16T05:36:33;1.30;;;0.40;;
7515;SDS011;3799;47.184;8.538;2023-04-16T05:39:01;0.93;;;0.30;;
7515;SDS011;3799;47.184;8.538;2023-04-16T05:41:32;1.10;;;0.40;;
7515;SDS011;3799;47.184;8.538;2023-04-16T05:44:00;1.45;;;0.20;;
7515;SDS011;3799;47.184;8.538;2023-04-16T05:46:27;1.17;;;0.30;;
7515;SDS011;3799;47.184;8.538;2023-04-16T05:48:54;1.17;;;0.40;;
7515;SDS011;3799;47.184;8.538;2023-04-16T05:51:28;0.77;;;0.20;;
7515;SDS011;3799;47.184;8.538;2023-04-16T05:53:56;1.10;;;0.35;;
7515;SDS011;3799;47.184;8.538;2023-04-16T05:56:23;0.90;;;0.32;;
7515;SDS011;3799;47.184;8.538;2023-04-16T05:58:51;1.48;;;0.45;;
7515;SDS011;3799;47.184;8.538;2023-04-16T06:01:18;1.08;;;0.35;;
7515;SDS011;3799;47.184;8.538;2023-04-16T06:03:46;0.88;;;0.30;;
7515;SDS011;3799;47.184;8.538;2023-04-16T06:06:15;0.20;;;0.10;;
7515;SDS011;3799;47.184;8.538;2023-04-16T06:08:42;0.80;;;0.30;;
7515;SDS011;3799;47.184;8.538;2023-04-16T06:11:10;2.08;;;0.30;;
7515;SDS011;3799;47.184;8.538;2023-04-16T06:13:38;1.35;;;0.30;;
7515;SDS011;3799;47.184;8.538;2023-04-16T06:16:05;1.10;;;0.35;;
7515;SDS011;3799;47.184;8.538;2023-04-16T06:18:33;0.70;;;0.32;;
7515;SDS011;3799;47.184;8.538;2023-04-16T06:21:00;1.95;;;0.70;;
7515;SDS011;3799;47.184;8.538;2023-04-16T06:23:29;0.90;;;0.25;;
7515;SDS011;3799;47.184;8.538;2023-04-16T06:25:57;0.65;;;0.20;;
7515;SDS011;3799;47.184;8.538;2023-04-16T06:28:24;1.17;;;0.40;;
7515;SDS011;3799;47.184;8.538;2023-04-16T06:30:52;0.63;;;0.20;;
7515;SDS011;3799;47.184;8.538;2023-04-16T06:33:19;0.38;;;0.00;;
7515;SDS011;3799;47.184;8.538;2023-04-16T06:35:46;0.28;;;0.00;;
7515;SDS011;3799;47.184;8.538;2023-04-16T06:38:14;1.58;;;0.13;;
7515;SDS011;3799;47.184;8.538;2023-04-16T06:40:41;0.85;;;0.10;;
7515;SDS011;3799;47.184;8.538;2023-04-16T06:43:09;0.63;;;0.20;;
7515;SDS011;3799;47.184;8.538;2023-04-16T06:45:36;0.70;;;0.10;;
7515;SDS011;3799;47.184;8.538;2023-04-16T06:48:04;2.08;;;0.70;;
7515;SDS011;3799;47.184;8.538;2023-04-16T06:50:41;1.08;;;0.25;;
7515;SDS011;3799;47.184;8.538;2023-04-16T06:53:09;0.35;;;0.00;;
7515;SDS011;3799;47.184;8.538;2023-04-16T06:55:36;1.10;;;0.10;;
7515;SDS011;3799;47.184;8.538;2023-04-16T06:58:04;0.28;;;0.00;;
7515;SDS011;3799;47.184;8.538;2023-04-16T07:00:34;0.68;;;0.10;;
7515;SDS011;3799;47.184;8.538;2023-04-16T07:03:01;0.20;;;0.00;;
7515;SDS011;3799;47.184;8.538;2023-04-16T07:05:29;1.58;;;0.20;;
7515;SDS011;3799;47.184;8.538;2023-04-16T07:07:58;0.40;;;0.15;;
7515;SDS011;3799;47.184;8.538;2023-04-16T07:10:25;0.40;;;0.00;;
7515;SDS011;3799;47.184;8.538;2023-04-16T07:12:53;1.05;;;0.20;;
7515;SDS011;3799;47.184;8.538;2023-04-16T07:15:20;0.60;;;0.20;;
7515;SDS011;3799;47.184;8.538;2023-04-16T07:17:47;0.77;;;0.20;;
7515;SDS011;3799;47.184;8.538;2023-04-16T07:20:19;1.40;;;0.20;;
7515;SDS011;3799;47.184;8.538;2023-04-16T07:22:47;0.20;;;0.00;;
7515;SDS011;3799;47.184;8.538;2023-04-16T07:25:15;0.47;;;0.10;;
7515;SDS011;3799;47.184;8.538;2023-04-16T07:27:43;0.30;;;0.00;;
7515;SDS011;3799;47.184;8.538;2023-04-16T07:30:11;1.60;;;0.20;;
7515;SDS011;3799;47.184;8.538;2023-04-16T07:32:38;0.57;;;0.00;;
7515;SDS011;3799;47.184;8.538;2023-04-16T07:35:06;0.70;;;0.20;;
7515;SDS011;3799;47.184;8.538;2023-04-16T07:37:33;1.83;;;0.10;;
7515;SDS011;3799;47.184;8.538;2023-04-16T07:40:04;0.40;;;0.20;;
7515;SDS011;3799;47.184;8.538;2023-04-16T07:42:33;1.20;;;0.10;;
7515;SDS011;3799;47.184;8.538;2023-04-16T07:45:01;0.50;;;0.20;;
7515;SDS011;3799;47.184;8.538;2023-04-16T07:47:28;0.85;;;0.00;;
7515;SDS011;3799;47.184;8.538;2023-04-16T07:49:55;0.80;;;0.20;;
7515;SDS011;3799;47.184;8.538;2023-04-16T07:52:25;1.15;;;0.10;;
7515;SDS011;3799;47.184;8.538;2023-04-16T07:54:53;0.40;;;0.08;;
7515;SDS011;3799;47.184;8.538;2023-04-16T07:57:20;0.10;;;0.00;;
7515;SDS011;3799;47.184;8.538;2023-04-16T07:59:47;0.57;;;0.10;;
7515;SDS011;3799;47.184;8.538;2023-04-16T08:02:14;0.57;;;0.20;;
7515;SDS011;3799;47.184;8.538;2023-04-16T08:04:45;0.60;;;0.10;;
7515;SDS011;3799;47.184;8.538;2023-04-16T08:07:12;0.88;;;0.20;;
7515;SDS011;3799;47.184;8.538;2023-04-16T08:09:46;1.92;;;0.20;;
7515;SDS011;3799;47.184;8.538;2023-04-16T08:12:15;0.90;;;0.20;;
7515;SDS011;3799;47.184;8.538;2023-04-16T08:14:45;1.17;;;0.20;;
7515;SDS011;3799;47.184;8.538;2023-04-16T08:17:13;1.25;;;0.15;;
7515;SDS011;3799;47.184;8.538;2023-04-16T08:19:45;1.08;;;0.25;;
7515;SDS011;3799;47.184;8.538;2023-04-16T08:22:12;0.82;;;0.30;;
7515;SDS011;3799;47.184;8.538;2023-04-16T08:24:40;0.95;;;0.17;;
7515;SDS011;3799;47.184;8.538;2023-04-16T08:27:08;0.40;;;0.10;;
7515;SDS011;3799;47.184;8.538;2023-04-16T08:29:46;0.43;;;0.10;;
7515;SDS011;3799;47.184;8.538;2023-04-16T08:32:14;2.55;;;0.57;;
7515;SDS011;3799;47.184;8.538;2023-04-16T08:34:41;0.60;;;0.20;;
7515;SDS011;3799;47.184;8.538;2023-04-16T08:37:09;1.02;;;0.30;;
7515;SDS011;3799;47.184;8.538;2023-04-16T08:39:37;0.55;;;0.10;;
7515;SDS011;3799;47.184;8.538;2023-04-16T08:42:05;1.00;;;0.17;;
7515;SDS011;3799;47.184;8.538;2023-04-16T08:44:41;0.68;;;0.10;;
7515;SDS011;3799;47.184;8.538;2023-04-16T08:47:14;1.08;;;0.10;;
7515;SDS011;3799;47.184;8.538;2023-04-16T08:49:43;0.65;;;0.22;;
7515;SDS011;3799;47.184;8.538;2023-04-16T08:52:13;0.63;;;0.10;;
7515;SDS011;3799;47.184;8.538;2023-04-16T08:54:50;0.35;;;0.10;;
7515;SDS011;3799;47.184;8.538;2023-04-16T08:57:25;0.75;;;0.10;;
7515;SDS011;3799;47.184;8.538;2023-04-16T09:00:03;0.47;;;0.10;;
7515;SDS011;3799;47.184;8.538;2023-04-16T09:02:32;1.30;;;0.32;;
7515;SDS011;3799;47.184;8.538;2023-04-16T09:05:01;2.35;;;0.55;;
7515;SDS011;3799;47.184;8.538;2023-04-16T09:07:31;1.02;;;0.17;;
7515;SDS011;3799;47.184;8.538;2023-04-16T09:10:00;1.17;;;0.32;;
7515;SDS011;3799;47.184;8.538;2023-04-16T09:12:28;1.42;;;0.35;;
7515;SDS011;3799;47.184;8.538;2023-04-16T09:14:56;1.20;;;0.50;;
7515;SDS011;3799;47.184;8.538;2023-04-16T09:17:28;1.02;;;0.20;;
7515;SDS011;3799;47.184;8.538;2023-04-16T09:19:55;1.77;;;0.60;;
7515;SDS011;3799;47.184;8.538;2023-04-16T09:22:23;2.33;;;0.60;;
7515;SDS011;3799;47.184;8.538;2023-04-16T09:24:50;0.73;;;0.30;;
7515;SDS011;3799;47.184;8.538;2023-04-16T09:27:17;1.27;;;0.40;;
7515;SDS011;3799;47.184;8.538;2023-04-16T09:29:51;0.93;;;0.32;;
7515;SDS011;3799;47.184;8.538;2023-04-16T09:32:23;1.38;;;0.52;;
7515;SDS011;3799;47.184;8.538;2023-04-16T09:34:58;1.75;;;0.30;;
7515;SDS011;3799;47.184;8.538;2023-04-16T09:37:28;1.10;;;0.30;;
7515;SDS011;3799;47.184;8.538;2023-04-16T09:40:00;0.95;;;0.28;;
7515;SDS011;3799;47.184;8.538;2023-04-16T09:42:35;1.15;;;0.30;;
7515;SDS011;3799;47.184;8.538;2023-04-16T09:45:03;1.08;;;0.32;;
7515;SDS011;3799;47.184;8.538;2023-04-16T09:47:39;1.95;;;0.40;;
7515;SDS011;3799;47.184;8.538;2023-04-16T09:50:15;6.93;;;0.70;;
7515;SDS011;3799;47.184;8.538;2023-04-16T09:52:46;1.33;;;0.60;;
7515;SDS011;3799;47.184;8.538;2023-04-16T09:55:21;1.33;;;0.50;;
7515;SDS011;3799;47.184;8.538;2023-04-16T09:57:52;1.23;;;0.45;;
7515;SDS011;3799;47.184;8.538;2023-04-16T10:00:25;1.50;;;0.50;;
7515;SDS011;3799;47.184;8.538;2023-04-16T10:03:05;2.10;;;0.47;;
7515;SDS011;3799;47.184;8.538;2023-04-16T10:05:33;1.02;;;0.17;;
7515;SDS011;3799;47.184;8.538;2023-04-16T10:08:00;1.27;;;0.40;;
7515;SDS011;3799;47.184;8.538;2023-04-16T10:10:28;1.70;;;0.73;;
7515;SDS011;3799;47.184;8.538;2023-04-16T10:12:56;1.70;;;0.40;;
7515;SDS011;3799;47.184;8.538;2023-04-16T10:15:24;0.85;;;0.38;;
7515;SDS011;3799;47.184;8.538;2023-04-16T10:17:51;1.52;;;0.40;;
7515;SDS011;3799;47.184;8.538;2023-04-16T10:20:20;0.63;;;0.22;;
7515;SDS011;3799;47.184;8.538;2023-04-16T10:22:49;2.05;;;0.30;;
7515;SDS011;3799;47.184;8.538;2023-04-16T10:25:18;1.27;;;0.40;;
7515;SDS011;3799;47.184;8.538;2023-04-16T10:27:46;1.50;;;0.68;;
7515;SDS011;3799;47.184;8.538;2023-04-16T10:30:14;1.40;;;0.50;;
7515;SDS011;3799;47.184;8.538;2023-04-16T10:32:43;1.48;;;0.40;;
7515;SDS011;3799;47.184;8.538;2023-04-16T10:35:13;1.70;;;0.63;;
7515;SDS011;3799;47.184;8.538;2023-04-16T10:37:44;1.15;;;0.40;;
7515;SDS011;3799;47.184;8.538;2023-04-16T10:40:25;2.30;;;0.38;;
7515;SDS011;3799;47.184;8.538;2023-04-16T10:42:57;4.35;;;0.60;;
7515;SDS011;3799;47.184;8.538;2023-04-16T10:45:26;1.40;;;0.45;;
7515;SDS011;3799;47.184;8.538;2023-04-16T10:47:57;0.80;;;0.20;;
7515;SDS011;3799;47.184;8.538;2023-04-16T10:50:32;1.55;;;0.32;;
7515;SDS011;3799;47.184;8.538;2023-04-16T10:53:19;1.23;;;0.45;;
7515;SDS011;3799;47.184;8.538;2023-04-16T10:58:30;1.90;;;0.43;;
7515;SDS011;3799;47.184;8.538;2023-04-16T11:01:01;1.77;;;0.52;;
7515;SDS011;3799;47.184;8.538;2023-04-16T11:03:33;1.17;;;0.52;;
7515;SDS011;3799;47.184;8.538;2023-04-16T11:06:14;1.33;;;0.50;;
7515;SDS011;3799;47.184;8.538;2023-04-16T11:08:44;3.13;;;0.52;;
7515;SDS011;3799;47.184;8.538;2023-04-16T11:11:15;2.10;;;0.82;;
7515;SDS011;3799;47.184;8.538;2023-04-16T11:13:43;2.10;;;0.65;;
7515;SDS011;3799;47.184;8.538;2023-04-16T11:16:12;2.45;;;1.00;;
7515;SDS011;3799;47.184;8.538;2023-04-16T11:18:44;2.28;;;0.98;;
7515;SDS011;3799;47.184;8.538;2023-04-16T11:21:17;2.45;;;1.08;;
7515;SDS011;3799;47.184;8.538;2023-04-16T11:23:49;2.28;;;0.95;;
7515;SDS011;3799;47.184;8.538;2023-04-16T11:26:18;1.85;;;0.98;;
7515;SDS011;3799;47.184;8.538;2023-04-16T11:28:50;2.15;;;0.93;;
7515;SDS011;3799;47.184;8.538;2023-04-16T11:31:18;3.10;;;1.30;;
7515;SDS011;3799;47.184;8.538;2023-04-16T11:33:46;2.45;;;0.82;;
7515;SDS011;3799;47.184;8.538;2023-04-16T11:36:13;3.70;;;0.80;;
7515;SDS011;3799;47.184;8.538;2023-04-16T11:38:44;4.63;;;1.10;;
7515;SDS011;3799;47.184;8.538;2023-04-16T11:41:18;2.47;;;0.80;;
7515;SDS011;3799;47.184;8.538;2023-04-16T11:43:46;4.78;;;0.70;;
7515;SDS011;3799;47.184;8.538;2023-04-16T11:46:13;1.42;;;0.57;;
7515;SDS011;3799;47.184;8.538;2023-04-16T11:48:53;3.17;;;0.80;;
7515;SDS011;3799;47.184;8.538;2023-04-16T11:51:22;1.13;;;0.47;;
7515;SDS011;3799;47.184;8.538;2023-04-16T11:53:52;1.15;;;0.50;;
7515;SDS011;3799;47.184;8.538;2023-04-16T11:56:24;1.33;;;0.43;;
7515;SDS011;3799;47.184;8.538;2023-04-16T12:01:39;1.77;;;0.45;;
7515;SDS011;3799;47.184;8.538;2023-04-16T12:04:20;1.05;;;0.50;;
7515;SDS011;3799;47.184;8.538;2023-04-16T12:07:12;1.05;;;0.45;;
7515;SDS011;3799;47.184;8.538;2023-04-16T12:09:41;1.17;;;0.40;;
7515;SDS011;3799;47.184;8.538;2023-04-16T12:14:53;1.23;;;0.50;;
7515;SDS011;3799;47.184;8.538;2023-04-16T12:17:22;1.83;;;0.73;;
7515;SDS011;3799;47.184;8.538;2023-04-16T12:19:51;1.73;;;0.43;;
7515;SDS011;3799;47.184;8.538;2023-04-16T12:22:31;1.10;;;0.50;;
7515;SDS011;3799;47.184;8.538;2023-04-16T12:25:03;1.80;;;0.73;;
7515;SDS011;3799;47.184;8.538;2023-04-16T12:27:54;2.00;;;0.60;;
7515;SDS011;3799;47.184;8.538;2023-04-16T12:30:22;2.72;;;1.17;;
7515;SDS011;3799;47.184;8.538;2023-04-16T12:32:52;2.20;;;0.80;;
7515;SDS011;3799;47.184;8.538;2023-04-16T12:35:40;2.13;;;0.85;;
7515;SDS011;3799;47.184;8.538;2023-04-16T12:38:09;2.13;;;0.70;;
7515;SDS011;3799;47.184;8.538;2023-04-16T12:40:38;1.98;;;0.90;;
7515;SDS011;3799;47.184;8.538;2023-04-16T12:43:05;2.33;;;0.82;;
7515;SDS011;3799;47.184;8.538;2023-04-16T12:45:34;1.73;;;0.60;;
7515;SDS011;3799;47.184;8.538;2023-04-16T12:48:02;1.75;;;0.60;;
7515;SDS011;3799;47.184;8.538;2023-04-16T12:50:29;3.00;;;0.80;;
7515;SDS011;3799;47.184;8.538;2023-04-16T12:52:57;1.60;;;0.80;;
7515;SDS011;3799;47.184;8.538;2023-04-16T12:55:25;1.75;;;0.70;;
7515;SDS011;3799;47.184;8.538;2023-04-16T12:57:52;2.00;;;0.70;;
7515;SDS011;3799;47.184;8.538;2023-04-16T13:00:20;1.95;;;0.85;;
7515;SDS011;3799;47.184;8.538;2023-04-16T13:02:51;1.98;;;0.75;;
7515;SDS011;3799;47.184;8.538;2023-04-16T13:05:19;1.63;;;0.80;;
7515;SDS011;3799;47.184;8.538;2023-04-16T13:07:46;2.67;;;0.93;;
7515;SDS011;3799;47.184;8.538;2023-04-16T13:10:18;2.28;;;0.90;;
7515;SDS011;3799;47.184;8.538;2023-04-16T13:15:14;4.03;;;1.10;;
7515;SDS011;3799;47.184;8.538;2023-04-16T13:17:41;2.10;;;0.88;;
7515;SDS011;3799;47.184;8.538;2023-04-16T13:20:09;1.35;;;0.57;;
7515;SDS011;3799;47.184;8.538;2023-04-16T13:22:36;2.50;;;1.13;;
7515;SDS011;3799;47.184;8.538;2023-04-16T13:25:13;2.22;;;1.10;;
7515;SDS011;3799;47.184;8.538;2023-04-16T13:27:41;2.40;;;1.10;;
7515;SDS011;3799;47.184;8.538;2023-04-16T13:30:21;2.90;;;1.25;;
7515;SDS011;3799;47.184;8.538;2023-04-16T13:32:48;2.97;;;1.40;;
7515;SDS011;3799;47.184;8.538;2023-04-16T13:35:15;2.65;;;1.13;;
7515;SDS011;3799;47.184;8.538;2023-04-16T13:37:43;4.00;;;1.40;;
7515;SDS011;3799;47.184;8.538;2023-04-16T13:40:11;2.15;;;1.30;;
7515;SDS011;3799;47.184;8.538;2023-04-16T13:42:39;2.05;;;1.30;;
7515;SDS011;3799;47.184;8.538;2023-04-16T13:45:06;2.08;;;1.13;;
7515;SDS011;3799;47.184;8.538;2023-04-16T13:47:35;1.98;;;1.05;;
7515;SDS011;3799;47.184;8.538;2023-04-16T13:50:11;2.72;;;1.33;;
7515;SDS011;3799;47.184;8.538;2023-04-16T13:52:39;2.63;;;1.23;;
7515;SDS011;3799;47.184;8.538;2023-04-16T13:55:07;3.60;;;1.13;;
7515;SDS011;3799;47.184;8.538;2023-04-16T13:57:35;2.47;;;1.13;;
7515;SDS011;3799;47.184;8.538;2023-04-16T14:00:03;2.88;;;1.17;;
7515;SDS011;3799;47.184;8.538;2023-04-16T14:02:35;2.97;;;1.40;;
7515;SDS011;3799;47.184;8.538;2023-04-16T14:05:03;3.85;;;1.48;;
7515;SDS011;3799;47.184;8.538;2023-04-16T14:07:30;2.90;;;1.42;;
7515;SDS011;3799;47.184;8.538;2023-04-16T14:09:58;3.72;;;1.55;;
7515;SDS011;3799;47.184;8.538;2023-04-16T14:12:26;2.58;;;1.50;;
7515;SDS011;3799;47.184;8.538;2023-04-16T14:14:53;2.42;;;1.42;;
7515;SDS011;3799;47.184;8.538;2023-04-16T14:17:21;3.80;;;1.48;;
7515;SDS011;3799;47.184;8.538;2023-04-16T14:19:49;2.90;;;1.95;;
7515;SDS011;3799;47.184;8.538;2023-04-16T14:22:21;3.13;;;1.70;;
7515;SDS011;3799;47.184;8.538;2023-04-16T14:24:49;3.35;;;1.73;;
7515;SDS011;3799;47.184;8.538;2023-04-16T14:27:16;3.65;;;1.90;;
7515;SDS011;3799;47.184;8.538;2023-04-16T14:29:44;3.45;;;2.00;;
7515;SDS011;3799;47.184;8.538;2023-04-16T14:32:12;4.78;;;1.73;;
7515;SDS011;3799;47.184;8.538;2023-04-16T14:34:39;3.17;;;1.73;;
7515;SDS011;3799;47.184;8.538;2023-04-16T14:37:07;2.88;;;2.00;;
7515;SDS011;3799;47.184;8.538;2023-04-16T14:39:34;5.45;;;2.17;;
7515;SDS011;3799;47.184;8.538;2023-04-16T14:42:04;2.90;;;1.70;;
7515;SDS011;3799;47.184;8.538;2023-04-16T14:44:32;3.45;;;1.73;;
7515;SDS011;3799;47.184;8.538;2023-04-16T14:47:03;4.20;;;1.80;;
7515;SDS011;3799;47.184;8.538;2023-04-16T14:49:34;3.08;;;1.75;;
7515;SDS011;3799;47.184;8.538;2023-04-16T14:52:02;3.55;;;2.17;;
7515;SDS011;3799;47.184;8.538;2023-04-16T14:54:31;4.35;;;2.25;;
7515;SDS011;3799;47.184;8.538;2023-04-16T14:57:01;4.35;;;2.15;;
7515;SDS011;3799;47.184;8.538;2023-04-16T14:59:29;5.07;;;2.25;;
7515;SDS011;3799;47.184;8.538;2023-04-16T15:01:57;4.38;;;2.47;;
7515;SDS011;3799;47.184;8.538;2023-04-16T15:04:25;4.95;;;2.33;;
7515;SDS011;3799;47.184;8.538;2023-04-16T15:06:52;3.53;;;2.22;;
7515;SDS011;3799;47.184;8.538;2023-04-16T15:09:25;5.05;;;2.72;;
7515;SDS011;3799;47.184;8.538;2023-04-16T15:11:53;4.35;;;2.67;;
7515;SDS011;3799;47.184;8.538;2023-04-16T15:14:21;4.68;;;2.63;;
7515;SDS011;3799;47.184;8.538;2023-04-16T15:16:48;4.13;;;2.70;;
7515;SDS011;3799;47.184;8.538;2023-04-16T15:19:16;3.85;;;2.33;;
7515;SDS011;3799;47.184;8.538;2023-04-16T15:21:45;4.25;;;2.38;;
7515;SDS011;3799;47.184;8.538;2023-04-16T15:24:14;3.58;;;2.38;;
7515;SDS011;3799;47.184;8.538;2023-04-16T15:26:41;4.07;;;2.40;;
7515;SDS011;3799;47.184;8.538;2023-04-16T15:29:08;5.00;;;2.13;;
7515;SDS011;3799;47.184;8.538;2023-04-16T15:31:38;4.38;;;2.33;;
7515;SDS011;3799;47.184;8.538;2023-04-16T15:34:06;4.00;;;2.38;;
7515;SDS011;3799;47.184;8.538;2023-04-16T15:36:33;3.65;;;2.38;;
7515;SDS011;3799;47.184;8.538;2023-04-16T15:39:01;3.58;;;2.13;;
7515;SDS011;3799;47.184;8.538;2023-04-16T15:41:28;5.05;;;2.78;;
7515;SDS011;3799;47.184;8.538;2023-04-16T15:43:58;4.05;;;2.63;;